Time;durP1;ratioP1;P1;durP2;ratioP2;P2;SDS_P1;SDS_P2;PMS_P1;PMS_P2;Temp;Humidity;BMP_temperature;BMP_pressure;BME280_temperature;BME280_humidity;BME280_pressure;Samples;Min_cycle;Max_cycle;Signal;HPM_P1;HPM_P2
2022/02/21 00:00:19;;;;;;;4.70;3.63;;;8.10;99.90;;;;;;5002471;28;20558;-83
2022/02/21 00:02:48;;;;;;;3.30;2.50;;;8.10;99.90;;;;;;5010923;28;21002;-83
2022/02/21 00:05:16;;;;;;;1.77;1.60;;;8.10;99.90;;;;;;5014449;28;20456;-82
2022/02/21 00:07:45;;;;;;;1.93;1.43;;;8.10;99.90;;;;;;5013721;28;20416;-83
2022/02/21 00:10:12;;;;;;;1.85;1.50;;;8.10;99.90;;;;;;5006633;28;20476;-83
2022/02/21 00:12:39;;;;;;;1.90;1.70;;;8.20;99.90;;;;;;5005092;28;20225;-83
2022/02/21 00:15:08;;;;;;;1.77;1.67;;;8.20;99.90;;;;;;5006473;28;20411;-83
2022/02/21 00:17:35;;;;;;;1.60;1.50;;;8.20;99.90;;;;;;5009040;28;20477;-83
2022/02/21 00:20:02;;;;;;;1.90;1.80;;;8.20;99.90;;;;;;5007883;28;20208;-83
2022/02/21 00:22:29;;;;;;;1.53;1.43;;;8.50;99.90;;;;;;5007748;28;20204;-82
2022/02/21 00:24:57;;;;;;;1.80;1.60;;;8.30;99.90;;;;;;5018758;28;20403;-82
2022/02/21 00:27:23;;;;;;;2.20;1.60;;;8.30;99.90;;;;;;5020447;28;20454;-82
2022/02/21 00:29:50;;;;;;;1.83;1.63;;;8.30;99.90;;;;;;5020469;28;20438;-82
2022/02/21 00:32:17;;;;;;;1.60;1.50;;;8.00;99.90;;;;;;5020245;28;20512;-83
2022/02/21 00:34:44;;;;;;;2.87;1.60;;;8.20;99.90;;;;;;5020406;28;20189;-83
2022/02/21 00:37:10;;;;;;;2.60;1.30;;;8.30;99.90;;;;;;5019831;28;20477;-82
2022/02/21 00:39:37;;;;;;;1.47;1.37;;;8.40;99.90;;;;;;5019403;28;20436;-82
2022/02/21 00:42:06;;;;;;;1.97;1.40;;;8.40;99.90;;;;;;5019994;28;20432;-82
2022/02/21 00:44:33;;;;;;;1.87;1.40;;;8.40;99.90;;;;;;5019809;28;20439;-82
2022/02/21 00:47:00;;;;;;;1.57;1.20;;;8.40;99.90;;;;;;5012110;28;20437;-82
2022/02/21 00:49:27;;;;;;;1.23;1.10;;;8.50;99.90;;;;;;5008482;28;20522;-82
2022/02/21 00:51:54;;;;;;;1.70;1.30;;;8.50;99.90;;;;;;5008485;28;20418;-82
2022/02/21 00:54:20;;;;;;;1.90;1.23;;;8.60;99.90;;;;;;5011965;28;20477;-82
2022/02/21 00:56:47;;;;;;;2.30;1.60;;;8.60;99.90;;;;;;5017542;28;20229;-82
2022/02/21 00:59:15;;;;;;;2.73;1.47;;;8.60;99.90;;;;;;5009854;28;20473;-84
2022/02/21 01:01:41;;;;;;;1.37;1.20;;;8.60;99.90;;;;;;5009686;28;20445;-83
2022/02/21 01:04:08;;;;;;;4.30;1.07;;;8.70;99.90;;;;;;5017812;28;20432;-82
2022/02/21 01:06:35;;;;;;;1.30;1.20;;;8.80;99.90;;;;;;5011587;28;20415;-82
2022/02/21 01:09:01;;;;;;;1.20;1.20;;;8.80;99.90;;;;;;5005461;28;20422;-83
2022/02/21 01:11:30;;;;;;;1.53;1.20;;;8.90;99.90;;;;;;5005259;28;20456;-83
2022/02/21 01:13:57;;;;;;;1.93;1.47;;;8.90;99.90;;;;;;5004442;28;20926;-83
2022/02/21 01:16:25;;;;;;;1.40;1.30;;;8.90;99.90;;;;;;5004981;28;20496;-83
2022/02/21 01:18:52;;;;;;;4.00;1.97;;;9.00;99.90;;;;;;5006049;28;20439;-83
2022/02/21 01:21:19;;;;;;;1.80;1.47;;;9.00;99.90;;;;;;5004921;28;20539;-83
2022/02/21 01:23:46;;;;;;;1.23;1.10;;;9.00;99.90;;;;;;5004586;28;20468;-83
2022/02/21 01:26:12;;;;;;;1.53;1.17;;;9.10;99.90;;;;;;5004100;28;20452;-83
2022/02/21 01:28:39;;;;;;;1.67;1.10;;;9.20;99.90;;;;;;5004894;28;20438;-84
2022/02/21 01:31:05;;;;;;;1.60;1.50;;;9.20;99.90;;;;;;5004605;28;20820;-84
2022/02/21 01:33:33;;;;;;;1.63;1.37;;;9.10;99.90;;;;;;5004336;28;20472;-82
2022/02/21 01:36:00;;;;;;;2.00;1.03;;;9.20;99.90;;;;;;5006946;28;20455;-83
2022/02/21 01:38:27;;;;;;;1.47;1.20;;;9.30;99.90;;;;;;5005075;28;20453;-84
2022/02/21 01:40:53;;;;;;;1.17;1.17;;;9.40;99.90;;;;;;5005059;28;20454;-83
2022/02/21 01:43:20;;;;;;;1.20;1.00;;;9.50;99.90;;;;;;5001047;28;20475;-83
2022/02/21 01:45:47;;;;;;;1.47;1.10;;;9.50;99.90;;;;;;5001498;28;20825;-83
2022/02/21 01:48:13;;;;;;;0.97;0.97;;;9.60;99.90;;;;;;5000566;28;20427;-83
2022/02/21 01:50:44;;;;;;;1.57;1.23;;;9.50;99.90;;;;;;5001719;28;20419;-83
2022/02/21 01:53:12;;;;;;;1.67;0.97;;;9.60;99.90;;;;;;5002045;28;20996;-82
2022/02/21 01:55:38;;;;;;;1.27;0.90;;;9.70;99.90;;;;;;5002479;28;20437;-83
2022/02/21 01:58:07;;;;;;;2.10;1.00;;;9.70;99.90;;;;;;5002533;28;20782;-82
2022/02/21 02:00:33;;;;;;;2.60;1.10;;;9.70;99.90;;;;;;5002718;28;20483;-83
2022/02/21 02:03:00;;;;;;;2.17;1.30;;;9.70;99.90;;;;;;5002620;28;20462;-82
2022/02/21 02:05:28;;;;;;;1.13;1.07;;;9.80;99.90;;;;;;5002903;28;20903;-83
2022/02/21 02:07:56;;;;;;;1.60;1.27;;;9.80;99.90;;;;;;5004612;28;20454;-83
2022/02/21 02:10:26;;;;;;;1.00;1.00;;;9.80;99.90;;;;;;5012571;28;20547;-82
2022/02/21 02:12:52;;;;;;;2.40;1.10;;;9.80;99.90;;;;;;5013396;28;20463;-83
2022/02/21 02:15:20;;;;;;;1.77;1.10;;;9.90;99.90;;;;;;5012074;28;20450;-83
2022/02/21 02:17:47;;;;;;;2.77;0.90;;;9.90;99.90;;;;;;5014004;28;20455;-83
2022/02/21 02:20:16;;;;;;;3.00;1.00;;;9.90;99.90;;;;;;5012283;28;20458;-82
2022/02/21 02:22:45;;;;;;;1.03;0.93;;;10.00;99.90;;;;;;5013094;28;20450;-83
2022/02/21 02:25:12;;;;;;;1.23;1.00;;;10.00;99.90;;;;;;5014133;28;20439;-83
2022/02/21 02:27:38;;;;;;;1.20;1.10;;;9.90;99.90;;;;;;5012818;28;20441;-84
2022/02/21 02:30:06;;;;;;;1.00;0.90;;;10.20;99.90;;;;;;5011574;28;20432;-83
2022/02/21 02:32:33;;;;;;;1.20;1.10;;;10.10;99.90;;;;;;5013823;28;20467;-83
2022/02/21 02:35:00;;;;;;;7.80;1.30;;;10.00;99.90;;;;;;5012410;28;20423;-83
2022/02/21 02:37:30;;;;;;;1.27;1.00;;;10.00;99.90;;;;;;5011981;28;20512;-83
2022/02/21 02:39:59;;;;;;;1.53;0.97;;;9.80;99.90;;;;;;5008691;28;20438;-83
2022/02/21 02:42:26;;;;;;;1.10;1.00;;;9.50;99.90;;;;;;5006168;28;20460;-84
2022/02/21 02:44:53;;;;;;;2.83;1.60;;;9.60;99.90;;;;;;5007052;28;20428;-83
2022/02/21 02:47:19;;;;;;;3.10;1.43;;;9.40;99.90;;;;;;5009636;28;20450;-83
2022/02/21 02:49:46;;;;;;;1.20;1.07;;;8.80;99.90;;;;;;5001506;28;20446;-83
2022/02/21 02:52:13;;;;;;;2.03;0.83;;;8.40;99.90;;;;;;5001977;28;20438;-83
2022/02/21 02:54:40;;;;;;;1.30;0.82;;;8.20;99.90;;;;;;5002687;28;20481;-83
2022/02/21 02:57:08;;;;;;;1.10;0.77;;;8.20;99.90;;;;;;5004470;28;20249;-83
2022/02/21 02:59:35;;;;;;;1.83;0.90;;;8.00;99.90;;;;;;5004379;28;20463;-83
2022/02/21 03:02:01;;;;;;;1.23;0.73;;;8.00;99.90;;;;;;5005500;28;20201;-83
2022/02/21 03:04:28;;;;;;;2.50;1.02;;;7.90;99.90;;;;;;5009083;28;20574;-83
2022/02/21 03:06:58;;;;;;;1.85;0.80;;;7.50;99.90;;;;;;5008275;28;20201;-82
2022/02/21 03:09:25;;;;;;;2.00;0.98;;;7.80;99.90;;;;;;5008430;28;20650;-82
2022/02/21 03:11:51;;;;;;;1.17;1.00;;;7.80;99.90;;;;;;5008087;28;20208;-82
2022/02/21 03:14:19;;;;;;;0.68;0.68;;;7.80;99.90;;;;;;5007544;28;20229;-83
2022/02/21 03:16:46;;;;;;;1.30;0.88;;;7.70;99.90;;;;;;5015080;28;20252;-83
2022/02/21 03:19:13;;;;;;;0.80;0.80;;;7.70;99.90;;;;;;5017271;28;20268;-83
2022/02/21 03:21:39;;;;;;;1.38;1.27;;;7.80;99.90;;;;;;5017667;28;20193;-83
2022/02/21 03:24:07;;;;;;;3.83;1.05;;;7.80;99.90;;;;;;5017723;28;20221;-82
2022/02/21 03:26:34;;;;;;;0.70;0.70;;;7.70;99.90;;;;;;5019416;28;20208;-82
2022/02/21 03:29:00;;;;;;;0.80;0.80;;;7.60;99.90;;;;;;5019436;28;20197;-82
2022/02/21 03:31:28;;;;;;;0.70;0.70;;;7.70;99.90;;;;;;5018943;28;20207;-83
2022/02/21 03:33:55;;;;;;;0.60;0.60;;;7.70;99.90;;;;;;5010756;28;20263;-83
2022/02/21 03:36:22;;;;;;;1.08;0.63;;;7.60;99.90;;;;;;5010236;28;20569;-83
2022/02/21 03:38:48;;;;;;;0.68;0.68;;;7.60;99.90;;;;;;5009051;28;20209;-83
2022/02/21 03:41:16;;;;;;;0.80;0.80;;;7.60;99.90;;;;;;5008639;28;20684;-83
2022/02/21 03:43:43;;;;;;;1.63;1.02;;;7.60;99.90;;;;;;5007085;28;20275;-83
2022/02/21 03:46:10;;;;;;;0.80;0.70;;;7.40;99.90;;;;;;5007870;28;20201;-84
2022/02/21 03:48:38;;;;;;;0.60;0.60;;;7.50;99.90;;;;;;5006575;28;20206;-83
2022/02/21 03:51:05;;;;;;;0.80;0.80;;;7.50;99.90;;;;;;5006086;28;20193;-83
2022/02/21 03:53:31;;;;;;;0.70;0.70;;;7.40;99.90;;;;;;5005662;28;20229;-84
2022/02/21 03:55:58;;;;;;;1.77;0.80;;;7.60;99.90;;;;;;5005913;28;20256;-83
2022/02/21 03:58:25;;;;;;;0.80;0.80;;;7.60;99.90;;;;;;5005869;28;20221;-83
2022/02/21 04:00:51;;;;;;;0.80;0.60;;;7.50;99.90;;;;;;5007786;28;20209;-83
2022/02/21 04:03:18;;;;;;;0.90;0.90;;;7.50;99.90;;;;;;5017778;28;20225;-83
2022/02/21 04:05:48;;;;;;;1.25;0.70;;;7.60;99.90;;;;;;5020880;28;20197;-83
2022/02/21 04:08:15;;;;;;;1.30;0.82;;;7.20;99.90;;;;;;5020372;28;20190;-83
2022/02/21 04:10:41;;;;;;;1.35;0.80;;;7.50;99.90;;;;;;5018891;28;20224;-83
2022/02/21 04:13:11;;;;;;;0.70;0.70;;;7.40;99.90;;;;;;5019481;28;20205;-83
2022/02/21 04:15:38;;;;;;;1.58;1.10;;;7.40;99.90;;;;;;5019644;28;20261;-84
2022/02/21 04:18:05;;;;;;;2.17;0.70;;;7.40;99.90;;;;;;5017077;28;20225;-83
2022/02/21 04:20:32;;;;;;;1.00;1.00;;;7.40;99.90;;;;;;5016687;28;20205;-83
2022/02/21 04:23:00;;;;;;;1.73;0.77;;;7.40;99.90;;;;;;5017461;28;20233;-83
2022/02/21 04:25:26;;;;;;;0.80;0.80;;;7.50;99.90;;;;;;5017320;28;20216;-83
2022/02/21 04:27:55;;;;;;;2.10;1.40;;;7.50;99.90;;;;;;5015808;28;20512;-84
2022/02/21 04:30:24;;;;;;;1.13;0.70;;;7.40;99.90;;;;;;5014623;28;20211;-84
2022/02/21 04:32:52;;;;;;;0.90;0.90;;;7.50;99.90;;;;;;5014718;28;20229;-83
2022/02/21 04:35:21;;;;;;;0.80;0.80;;;7.50;99.90;;;;;;5010515;28;20200;-83
2022/02/21 04:37:48;;;;;;;2.25;0.80;;;7.40;99.90;;;;;;5007020;28;20280;-84
2022/02/21 04:40:18;;;;;;;1.10;1.00;;;7.40;99.90;;;;;;5005605;28;20216;-84
2022/02/21 04:42:47;;;;;;;1.27;0.82;;;7.40;99.90;;;;;;5002291;28;20229;-84
2022/02/21 04:45:14;;;;;;;1.00;0.80;;;7.40;99.90;;;;;;5002188;28;20277;-83
2022/02/21 04:47:40;;;;;;;1.30;1.00;;;7.50;99.90;;;;;;5005027;28;20212;-84
2022/02/21 04:50:09;;;;;;;1.00;0.90;;;7.40;99.90;;;;;;5005258;28;20209;-84
2022/02/21 04:55:18;;;;;;;0.85;0.85;;;7.00;99.90;;;;;;5034380;28;20266;-85
2022/02/21 04:57:46;;;;;;;1.00;0.80;;;;;;;;;;5033464;28;20224;-86
2022/02/21 05:00:15;;;;;;;1.63;1.08;;;6.90;99.90;;;;;;5030398;28;20235;-85
2022/02/21 05:02:42;;;;;;;0.90;0.90;;;;;;;;;;5028279;28;20706;-86
2022/02/21 05:05:12;;;;;;;1.00;0.90;;;6.80;99.90;;;;;;5028062;28;20518;-86
2022/02/21 05:07:39;;;;;;;1.20;1.00;;;;;;;;;;5037059;28;20197;-85
2022/02/21 05:10:07;;;;;;;1.45;1.00;;;6.80;99.90;;;;;;5028950;28;20200;-84
2022/02/21 05:12:35;;;;;;;0.93;0.93;;;6.90;99.90;;;;;;5023716;28;20204;-85
2022/02/21 05:15:03;;;;;;;1.25;0.88;;;6.80;99.90;;;;;;5024493;28;20235;-86
2022/02/21 05:17:29;;;;;;;1.50;0.98;;;6.80;99.90;;;;;;5020752;28;20227;-84
2022/02/21 05:19:56;;;;;;;5.43;1.50;;;6.70;99.90;;;;;;5019368;28;20208;-83
2022/02/21 05:22:23;;;;;;;3.45;1.00;;;7.00;99.90;;;;;;5024222;28;20274;-85
2022/02/21 05:24:50;;;;;;;4.03;1.10;;;6.80;99.90;;;;;;5027233;28;20219;-85
2022/02/21 05:27:17;;;;;;;3.50;1.77;;;6.80;99.90;;;;;;5028398;28;20224;-85
2022/02/21 05:29:47;;;;;;;2.33;1.20;;;6.80;99.90;;;;;;5030080;28;20196;-85
2022/02/21 05:34:55;;;;;;;2.25;0.90;;;;;;;;;;5026506;28;20216;-85
2022/02/21 05:37:27;;;;;;;2.97;1.15;;;6.70;99.90;;;;;;5029617;28;20216;-85
2022/02/21 05:39:58;;;;;;;1.95;1.60;;;6.70;99.90;;;;;;5030146;28;20204;-85
2022/02/21 05:42:25;;;;;;;2.55;1.17;;;;;;;;;;5028467;28;20209;-86
2022/02/21 05:44:54;;;;;;;2.33;1.20;;;6.50;98.80;;;;;;5028608;28;20291;-85
2022/02/21 05:47:29;;;;;;;2.08;1.10;;;6.50;99.90;;;;;;5028894;28;20204;-86
2022/02/21 05:49:57;;;;;;;1.40;1.25;;;;;;;;;;5028602;28;20272;-85
2022/02/21 05:52:34;;;;;;;2.72;1.48;;;6.50;1.00;;;;;;5037644;28;20545;-86
2022/02/21 05:55:11;;;;;;;1.20;1.10;;;6.40;1.00;;;;;;5037603;28;20216;-85
2022/02/21 05:57:53;;;;;;;3.55;1.52;;;6.60;21.60;;;;;;5031782;28;20250;-85
2022/02/21 06:00:31;;;;;;;2.78;1.55;;;6.40;1.00;;;;;;5028728;28;20227;-86
2022/02/21 06:03:13;;;;;;;1.50;1.20;;;6.20;1.00;;;;;;5028664;28;20291;-85
2022/02/21 06:05:40;;;;;;;2.08;1.50;;;7.20;1.00;;;;;;5029391;28;20291;-85
2022/02/21 06:08:32;;;;;;;3.30;1.35;;;6.30;1.00;;;;;;5028676;28;20193;-85
2022/02/21 06:13:41;;;;;;;2.95;1.30;;;;;;;;;;5029763;28;20937;-86
2022/02/21 06:16:22;;;;;;;2.15;1.52;;;6.30;1.00;;;;;;5030362;28;20212;-86
2022/02/21 06:18:51;;;;;;;2.22;1.30;;;;;;;;;;5029428;28;20208;-85
2022/02/21 06:21:19;;;;;;;4.15;1.33;;;;;;;;;;5029179;28;20200;-85
2022/02/21 06:23:47;;;;;;;2.22;1.70;;;;;;;;;;5028484;28;20251;-84
2022/02/21 06:26:14;;;;;;;3.10;1.55;;;;;;;;;;5032688;28;20204;-85
2022/02/21 06:28:47;;;;;;;4.75;1.42;;;5.70;1.00;;;;;;5036946;28;20197;-84
2022/02/21 06:31:21;;;;;;;2.50;1.60;;;5.60;99.90;;;;;;5036564;28;20196;-86
2022/02/21 06:33:48;;;;;;;3.85;1.80;;;;;;;;;;5036066;28;20259;-87
2022/02/21 06:36:23;;;;;;;7.10;2.03;;;5.40;1.00;;;;;;5035198;28;20235;-87
2022/02/21 06:38:55;;;;;;;3.35;1.08;;;5.20;1.00;;;;;;5036818;28;20223;-86
2022/02/21 06:41:25;;;;;;;4.07;1.20;;;;;;;;;;5036578;28;20208;-84
2022/02/21 06:43:53;;;;;;;0.80;0.80;;;4.90;99.90;;;;;;5036487;28;20793;-85
2022/02/21 06:46:22;;;;;;;1.95;1.40;;;4.80;99.90;;;;;;5035585;28;20208;-86
2022/02/21 06:48:53;;;;;;;1.73;1.05;;;4.70;99.90;;;;;;5033924;28;20283;-85
2022/02/21 06:51:20;;;;;;;3.42;1.00;;;;;;;;;;5035302;28;20215;-86
2022/02/21 06:53:47;;;;;;;1.60;1.50;;;;;;;;;;5032253;28;20235;-84
2022/02/21 06:56:25;;;;;;;2.25;1.10;;;4.80;99.90;;;;;;5034810;28;20209;-85
2022/02/21 06:58:52;;;;;;;4.47;1.30;;;;;;;;;;5033228;28;20215;-86
2022/02/21 07:01:19;;;;;;;5.85;1.45;;;;;;;;;;5032202;28;20213;-84
2022/02/21 07:03:54;;;;;;;5.72;1.30;;;4.90;99.90;;;;;;5033179;28;20228;-86
2022/02/21 07:06:23;;;;;;;1.33;1.15;;;;;;;;;;5032008;28;20196;-86
2022/02/21 07:08:52;;;;;;;2.17;1.80;;;5.20;99.90;;;;;;5032304;28;20264;-85
2022/02/21 07:11:24;;;;;;;4.03;1.55;;;;;;;;;;5035687;28;20212;-86
2022/02/21 07:13:51;;;;;;;8.95;2.10;;;;;;;;;;5040257;28;20228;-85
2022/02/21 07:16:28;;;;;;;4.00;2.75;;;5.00;68.40;;;;;;5040855;28;20191;-84
2022/02/21 07:18:57;;;;;;;7.22;2.70;;;5.20;23.70;;;;;;5034427;28;20253;-86
2022/02/21 07:21:25;;;;;;;7.72;2.80;;;;;;;;;;5033392;28;20307;-85
2022/02/21 07:23:57;;;;;;;10.07;2.15;;;5.30;99.90;;;;;;5033629;28;20224;-86
2022/02/21 07:26:33;;;;;;;8.20;2.97;;;5.40;99.90;;;;;;5033254;28;20186;-86
2022/02/21 07:31:52;;;;;;;3.42;1.80;;;5.40;56.30;;;;;;5031382;28;20340;-86
2022/02/21 07:34:24;;;;;;;9.23;2.83;;;7.00;26.80;;;;;;5028213;28;20291;-86
2022/02/21 07:36:52;;;;;;;6.13;2.65;;;;;;;;;;5026663;28;20196;-84
2022/02/21 07:39:19;;;;;;;9.43;2.22;;;;;;;;;;5025611;28;20673;-86
2022/02/21 07:41:58;;;;;;;6.13;2.40;;;4.90;1.00;;;;;;5029314;28;20220;-85
2022/02/21 07:44:25;;;;;;;4.00;1.83;;;;;;;;;;5031105;28;20810;-87
2022/02/21 07:46:56;;;;;;;7.13;2.65;;;;;;;;;;5034817;28;20200;-85
2022/02/21 07:49:30;;;;;;;5.97;2.60;;;5.20;1.00;;;;;;5040722;28;20176;-84
2022/02/21 07:51:59;;;;;;;4.40;2.22;;;;;;;;;;5038161;28;20189;-86
2022/02/21 07:54:26;;;;;;;3.42;2.40;;;;;;;;;;5034986;28;20235;-86
2022/02/21 07:56:56;;;;;;;8.30;2.30;;;5.10;1.00;;;;;;5038995;28;20196;-86
2022/02/21 07:59:27;;;;;;;9.52;3.20;;;5.30;1.00;;;;;;5038491;28;20212;-87
2022/02/21 08:02:00;;;;;;;10.25;2.88;;;;;;;;;;5034703;28;20223;-85
2022/02/21 08:04:33;;;;;;;4.05;2.17;;;5.30;99.90;;;;;;5031006;28;20289;-86
2022/02/21 08:09:54;;;;;;;4.82;2.35;;;5.50;99.90;;;;;;5026281;28;20208;-85
2022/02/21 08:12:32;;;;;;;;;;;;;;;;;;;;;
2022/02/21 08:15:04;;;;;;;7.15;2.85;;;5.50;99.90;;;;;;5034163;28;20226;-85
2022/02/21 08:17:41;;;;;;;4.95;2.30;;;5.50;1.00;;;;;;5030885;28;20204;-85
2022/02/21 08:20:24;;;;;;;5.95;3.80;;;5.70;99.90;;;;;;5028988;28;20243;-86
2022/02/21 08:23:05;;;;;;;8.38;2.50;;;5.50;1.00;;;;;;5030874;28;20667;-86
2022/02/21 08:25:40;;;;;;;6.00;1.40;;;5.60;1.00;;;;;;5031106;28;20176;-86
2022/02/21 08:28:12;;;;;;;8.60;2.45;;;;;;;;;;5030532;28;20216;-86
2022/02/21 08:30:51;;;;;;;8.70;2.67;;;5.60;1.00;;;;;;5031028;28;20220;-85
2022/02/21 08:33:22;;;;;;;5.53;2.38;;;;;;;;;;5030966;28;20228;-85
2022/02/21 08:36:15;;;;;;;6.85;2.00;;;5.70;99.90;;;;;;5031164;28;20215;-86
2022/02/21 08:38:47;;;;;;;2.30;1.80;;;5.70;99.90;;;;;;5030885;28;20224;-86
2022/02/21 08:41:32;;;;;;;8.48;2.05;;;5.60;36.80;;;;;;5030749;28;20185;-86
2022/02/21 08:44:09;;;;;;;7.43;2.65;;;;;;;;;;5031007;28;20220;-87
2022/02/21 08:46:48;;;;;;;2.35;1.75;;;5.60;99.90;;;;;;5030374;28;20204;-87
2022/02/21 08:49:30;;;;;;;6.68;2.45;;;3.70;1.00;;;;;;5030326;28;20299;-86
2022/02/21 08:52:31;;;;;;;6.10;2.22;;;5.40;1.00;;;;;;5029997;28;20204;-86
2022/02/21 08:55:04;;;;;;;4.10;2.15;;;;;;;;;;5030711;28;20318;-86
2022/02/21 09:00:26;;;;;;;2.60;1.90;;;4.90;99.90;;;;;;5028649;28;20203;-85
2022/02/21 09:03:05;;;;;;;3.92;1.70;;;5.70;1.00;;;;;;5029210;28;20200;-85
2022/02/21 09:05:46;;;;;;;5.55;1.85;;;;;;;;;;5031089;28;20212;-87
2022/02/21 09:11:45;;;;;;;10.73;2.60;;;5.90;1.00;;;;;;5032588;28;20230;-87
2022/02/21 09:14:31;;;;;;;7.22;2.60;;;5.90;1.00;;;;;;5035508;28;20272;-86
2022/02/21 09:19:55;;;;;;;3.10;1.27;;;5.80;1.00;;;;;;5035100;28;20256;-88
2022/02/21 09:22:28;;;;;;;11.00;2.75;;;;;;;;;;5036060;28;20216;-87
2022/02/21 09:25:04;;;;;;;3.80;1.92;;;5.40;1.00;;;;;;5036327;28;20243;-86
2022/02/21 09:27:35;;;;;;;6.30;1.95;;;;;;;;;;5036022;28;20208;-87
2022/02/21 09:30:07;;;;;;;7.03;2.17;;;;;;;;;;5035893;28;20215;-86
2022/02/21 09:32:53;;;;;;;3.28;2.17;;;5.80;1.00;;;;;;5031999;28;20200;-87
2022/02/21 09:35:22;;;;;;;7.15;2.60;;;;;;;;;;5033155;28;20200;-86
2022/02/21 09:37:57;;;;;;;8.55;3.05;;;5.90;1.00;;;;;;5033079;28;20204;-86
2022/02/21 09:40:26;;;;;;;7.57;1.98;;;5.80;1.00;;;;;;5033992;28;20270;-86
2022/02/21 09:43:07;;;;;;;5.80;2.30;;;5.90;1.00;;;;;;5034285;28;20281;-87
2022/02/21 09:48:50;;;;;;;2.83;1.95;;;5.90;1.00;;;;;;5030760;28;20207;-88
2022/02/21 09:51:19;;;;;;;6.28;2.40;;;;;;;;;;5030380;28;20208;-86
2022/02/21 09:53:53;;;;;;;4.20;2.28;;;;;;;;;;5029234;28;20232;-87
2022/02/21 09:56:38;;;;;;;5.22;2.45;;;5.90;99.90;;;;;;5029401;28;20204;-85
2022/02/21 09:59:27;;;;;;;4.15;2.28;;;6.10;99.90;;;;;;5033588;28;20232;-86
2022/02/21 10:02:09;;;;;;;5.72;1.83;;;;;;;;;;5037150;28;20208;-86
2022/02/21 10:04:59;;;;;;;2.40;1.42;;;6.30;99.90;;;;;;5037515;28;20283;-86
2022/02/21 10:07:33;;;;;;;9.50;2.95;;;6.30;99.90;;;;;;5038275;28;20263;-85
2022/02/21 10:10:22;;;;;;;3.25;2.05;;;6.30;99.90;;;;;;5037993;28;20223;-86
2022/02/21 10:12:57;;;;;;;2.78;1.65;;;6.50;99.90;;;;;;5031626;28;20204;-84
2022/02/21 10:15:30;;;;;;;3.25;2.25;;;6.20;99.90;;;;;;5031068;28;20203;-86
2022/02/21 10:18:18;;;;;;;6.03;3.30;;;6.20;99.90;;;;;;5032240;28;20204;-85
2022/02/21 10:21:03;;;;;;;5.57;2.70;;;6.30;99.90;;;;;;5032721;28;20200;-86
2022/02/21 10:26:21;;;;;;;3.78;1.90;;;6.20;99.90;;;;;;5033133;28;20195;-85
2022/02/21 10:35:22;;;;;;;3.50;2.15;;;6.40;99.90;;;;;;5025152;28;20222;-86
2022/02/21 10:38:01;;;;;;;3.70;2.42;;;6.50;99.90;;;;;;5035670;28;20323;-87
2022/02/21 10:40:42;;;;;;;6.10;3.28;;;6.40;70.50;;;;;;5034757;28;20200;-87
2022/02/21 10:43:22;;;;;;;3.17;1.83;;;6.40;99.90;;;;;;5035822;28;20204;-83
2022/02/21 10:45:59;;;;;;;5.60;2.55;;;6.40;99.90;;;;;;5037803;28;20176;-85
2022/02/21 10:48:47;;;;;;;3.05;2.30;;;6.40;99.90;;;;;;5033999;28;20186;-87
2022/02/21 10:51:19;;;;;;;6.55;2.17;;;;;;;;;;5032470;28;20208;-86
2022/02/21 10:53:48;;;;;;;4.25;2.40;;;6.40;97.60;;;;;;5043450;23;20229;-80
2022/02/21 10:56:16;;;;;;;5.15;2.38;;;6.40;99.90;;;;;;5000512;28;20271;-79
2022/02/21 10:58:43;;;;;;;3.55;2.10;;;6.50;99.90;;;;;;5001771;28;20280;-80
2022/02/21 11:01:11;;;;;;;8.48;2.15;;;6.70;99.90;;;;;;4999654;28;20296;-81
2022/02/21 11:03:38;;;;;;;14.48;3.97;;;6.80;99.90;;;;;;5003179;28;20224;-81
2022/02/21 11:06:06;;;;;;;5.65;2.38;;;6.60;99.90;;;;;;5001246;28;20209;-81
2022/02/21 11:08:33;;;;;;;4.45;1.55;;;6.70;99.90;;;;;;5000265;28;20224;-81
2022/02/21 11:11:01;;;;;;;6.15;2.05;;;6.60;99.90;;;;;;5004400;28;20209;-80
2022/02/21 11:13:29;;;;;;;5.88;1.88;;;6.70;99.90;;;;;;5004450;28;20232;-80
2022/02/21 11:15:57;;;;;;;5.13;2.42;;;6.70;99.90;;;;;;5011642;28;20622;-81
2022/02/21 11:18:26;;;;;;;9.55;2.40;;;6.70;99.10;;;;;;5012065;28;20197;-81
2022/02/21 11:20:53;;;;;;;6.05;2.17;;;;;;;;;;5008481;28;20293;-80
2022/02/21 11:23:19;;;;;;;8.02;2.65;;;6.70;85.40;;;;;;5006413;28;20221;-81
2022/02/21 11:25:54;;;;;;;5.47;2.65;;;6.70;99.90;;;;;;5009778;28;20640;-81
2022/02/21 11:28:23;;;;;;;7.53;2.72;;;6.70;99.40;;;;;;5011325;28;20228;-81
2022/02/21 11:30:55;;;;;;;6.90;2.40;;;6.70;67.20;;;;;;5011794;28;20260;-79
2022/02/21 11:33:21;;;;;;;2.55;1.70;;;6.70;58.20;;;;;;5010486;28;20227;-79
2022/02/21 11:36:04;;;;;;;7.85;2.20;;;6.80;23.40;;;;;;5006383;28;20209;-80
2022/02/21 11:38:33;;;;;;;3.13;2.00;;;6.80;19.40;;;;;;5003837;28;20248;-80
2022/02/21 11:41:02;;;;;;;12.05;2.53;;;6.80;1.00;;;;;;5003151;28;20236;-82
2022/02/21 11:43:36;;;;;;;8.18;2.42;;;6.90;1.40;;;;;;5002857;28;20263;-81
2022/02/21 11:46:06;;;;;;;3.38;2.40;;;6.90;1.00;;;;;;5005523;28;20188;-81
2022/02/21 11:48:57;;;;;;;10.02;1.98;;;6.80;1.00;;;;;;5003528;28;20209;-81
2022/02/21 11:51:31;;;;;;;2.40;1.98;;;6.80;1.00;;;;;;5002509;28;20205;-82
2022/02/21 11:54:39;;;;;;;8.52;1.80;;;6.70;1.00;;;;;;5001139;28;20264;-80
2022/02/21 11:57:09;;;;;;;3.72;2.20;;;6.70;1.00;;;;;;5002132;28;20337;-79
2022/02/21 11:59:36;;;;;;;3.08;2.10;;;6.80;1.00;;;;;;5001780;28;20217;-81
2022/02/21 12:02:10;;;;;;;6.25;2.03;;;6.80;1.00;;;;;;5002946;28;20209;-80
2022/02/21 12:04:48;;;;;;;3.15;2.05;;;6.70;1.00;;;;;;5002693;28;20607;-81
2022/02/21 12:07:25;;;;;;;6.15;2.42;;;6.70;1.00;;;;;;5005038;28;20640;-81
2022/02/21 12:10:21;;;;;;;5.22;2.13;;;6.80;1.00;;;;;;5006990;28;20192;-81
2022/02/21 12:12:57;;;;;;;4.35;2.30;;;6.90;1.00;;;;;;5005921;28;20345;-81
2022/02/21 12:15:24;;;;;;;5.68;3.65;;;7.00;1.00;;;;;;5011041;28;20193;-80
2022/02/21 12:18:19;;;;;;;4.22;2.45;;;7.00;1.00;;;;;;5018603;28;20205;-81
2022/02/21 12:20:46;;;;;;;3.33;1.90;;;7.10;1.00;;;;;;5012274;28;20291;-80
2022/02/21 12:23:21;;;;;;;5.97;1.95;;;6.90;36.10;;;;;;5004301;28;20205;-80
2022/02/21 12:26:18;;;;;;;1.48;1.25;;;7.10;1.00;;;;;;5000455;28;20213;-83
2022/02/21 12:28:45;;;;;;;2.38;1.88;;;7.10;1.00;;;;;;4999617;28;20204;-81
2022/02/21 12:31:25;;;;;;;6.47;2.30;;;7.10;1.00;;;;;;5001375;28;20263;-79
2022/02/21 12:33:57;;;;;;;7.03;2.38;;;7.20;1.00;;;;;;5000491;28;20316;-82
2022/02/21 12:36:24;;;;;;;6.65;2.40;;;7.20;1.00;;;;;;5000448;28;20200;-80
2022/02/21 12:39:00;;;;;;;12.40;2.78;;;7.10;1.00;;;;;;5001689;28;20216;-79
2022/02/21 12:41:34;;;;;;;8.98;2.22;;;7.00;1.00;;;;;;5005819;28;20189;-79
2022/02/21 12:44:03;;;;;;;6.47;2.50;;;7.10;1.00;;;;;;5007029;28;20224;-79
2022/02/21 12:46:32;;;;;;;5.55;2.60;;;7.10;1.00;;;;;;5011592;28;20205;-80
2022/02/21 12:49:05;;;;;;;4.90;2.10;;;7.00;1.00;;;;;;5015042;28;20209;-80
2022/02/21 12:51:33;;;;;;;4.35;1.70;;;7.00;1.00;;;;;;5010283;28;20193;-82
2022/02/21 12:54:04;;;;;;;5.32;2.45;;;6.70;2.10;;;;;;5005104;28;20268;-80
2022/02/21 12:56:44;;;;;;;4.28;2.28;;;6.90;1.00;;;;;;5002590;28;20189;-80
2022/02/21 12:59:11;;;;;;;8.75;3.22;;;6.80;1.00;;;;;;5001116;28;20209;-81
2022/02/21 13:01:38;;;;;;;5.75;2.35;;;6.90;1.00;;;;;;5000188;28;20234;-81
2022/02/21 13:04:08;;;;;;;3.83;1.80;;;6.80;1.00;;;;;;5000712;28;20236;-81
2022/02/21 13:06:35;;;;;;;10.63;3.40;;;6.80;1.00;;;;;;5000225;28;20269;-81
2022/02/21 13:09:04;;;;;;;12.38;2.75;;;6.80;1.00;;;;;;5000190;28;20205;-81
2022/02/21 13:11:32;;;;;;;4.10;2.50;;;6.80;1.00;;;;;;4999792;28;20255;-81
2022/02/21 13:14:00;;;;;;;5.35;2.28;;;6.80;1.00;;;;;;5000679;28;20229;-81
2022/02/21 13:16:28;;;;;;;6.72;2.40;;;6.80;1.00;;;;;;5001856;28;20204;-82
2022/02/21 13:18:57;;;;;;;6.15;2.25;;;6.80;1.00;;;;;;5001256;28;20215;-81
2022/02/21 13:21:32;;;;;;;7.50;2.05;;;6.60;18.00;;;;;;4999792;28;20292;-81
2022/02/21 13:24:00;;;;;;;3.35;2.25;;;6.80;1.00;;;;;;5000658;28;20236;-80
2022/02/21 13:26:28;;;;;;;4.80;2.63;;;6.90;1.00;;;;;;5000821;28;20205;-79
2022/02/21 13:28:54;;;;;;;9.68;2.63;;;6.90;1.00;;;;;;5000789;28;20219;-81
2022/02/21 13:31:21;;;;;;;4.22;2.35;;;6.90;1.00;;;;;;5007652;28;20216;-80
2022/02/21 13:33:50;;;;;;;7.10;2.10;;;6.90;1.00;;;;;;5002114;28;20257;-80
2022/02/21 13:36:25;;;;;;;3.80;1.60;;;6.90;1.00;;;;;;5001678;28;20207;-81
2022/02/21 13:38:56;;;;;;;6.30;2.80;;;6.90;1.00;;;;;;5003499;28;20543;-80
2022/02/21 13:41:23;;;;;;;6.82;2.30;;;6.90;1.00;;;;;;5002925;28;20208;-81
2022/02/21 13:43:51;;;;;;;6.53;2.10;;;6.90;1.00;;;;;;5002615;28;20263;-79
2022/02/21 13:46:19;;;;;;;5.75;2.80;;;6.80;1.00;;;;;;5003193;28;20201;-79
2022/02/21 13:48:49;;;;;;;3.67;1.88;;;6.80;1.00;;;;;;5006421;28;20208;-80
2022/02/21 13:51:18;;;;;;;4.22;1.83;;;6.80;6.70;;;;;;4999452;28;20688;-79
2022/02/21 13:53:44;;;;;;;3.78;2.10;;;6.80;78.90;;;;;;4997680;28;20240;-80
2022/02/21 13:56:14;;;;;;;4.20;2.47;;;6.60;28.80;;;;;;4999746;28;20206;-79
2022/02/21 13:58:43;;;;;;;7.47;2.60;;;7.40;61.20;;;;;;4998999;28;20220;-80
2022/02/21 14:01:13;;;;;;;3.45;2.70;;;6.60;37.90;;;;;;5000058;28;20262;-81
2022/02/21 14:03:43;;;;;;;7.43;2.78;;;6.60;45.00;;;;;;4998340;28;20653;-79
2022/02/21 14:06:10;;;;;;;5.50;1.70;;;6.60;52.10;;;;;;4998815;28;20208;-81